sensor_id;sensor_type;location;lat;lon;timestamp;P1;durP1;ratioP1;P2;durP2;ratioP2
74241;SDS011;62599;49.146;10.426;2022-09-09T00:01:46;3.28;;;0.63;;
74241;SDS011;62599;49.146;10.426;2022-09-09T00:04:19;2.50;;;0.98;;
74241;SDS011;62599;49.146;10.426;2022-09-09T00:07:10;2.88;;;1.13;;
74241;SDS011;62599;49.146;10.426;2022-09-09T00:09:45;2.33;;;0.80;;
74241;SDS011;62599;49.146;10.426;2022-09-09T00:12:13;4.35;;;1.23;;
74241;SDS011;62599;49.146;10.426;2022-09-09T00:17:09;1.67;;;0.90;;
74241;SDS011;62599;49.146;10.426;2022-09-09T00:22:15;1.97;;;0.90;;
74241;SDS011;62599;49.146;10.426;2022-09-09T00:24:48;1.58;;;0.90;;
74241;SDS011;62599;49.146;10.426;2022-09-09T00:27:21;2.10;;;0.95;;
74241;SDS011;62599;49.146;10.426;2022-09-09T00:29:53;2.22;;;1.10;;
74241;SDS011;62599;49.146;10.426;2022-09-09T00:32:19;8.30;;;1.77;;
74241;SDS011;62599;49.146;10.426;2022-09-09T00:37:13;3.35;;;1.00;;
74241;SDS011;62599;49.146;10.426;2022-09-09T00:39:42;4.30;;;0.98;;
74241;SDS011;62599;49.146;10.426;2022-09-09T00:42:15;4.35;;;1.45;;
74241;SDS011;62599;49.146;10.426;2022-09-09T00:44:46;3.22;;;1.40;;
74241;SDS011;62599;49.146;10.426;2022-09-09T00:55:05;2.30;;;1.25;;
74241;SDS011;62599;49.146;10.426;2022-09-09T00:57:32;2.40;;;1.25;;
74241;SDS011;62599;49.146;10.426;2022-09-09T00:59:59;3.45;;;1.40;;
74241;SDS011;62599;49.146;10.426;2022-09-09T01:04:51;3.92;;;1.00;;
74241;SDS011;62599;49.146;10.426;2022-09-09T01:07:18;3.33;;;0.80;;
74241;SDS011;62599;49.146;10.426;2022-09-09T01:09:56;1.73;;;1.42;;
74241;SDS011;62599;49.146;10.426;2022-09-09T01:12:26;3.05;;;1.20;;
74241;SDS011;62599;49.146;10.426;2022-09-09T01:15:12;5.70;;;1.67;;
74241;SDS011;62599;49.146;10.426;2022-09-09T01:20:27;2.33;;;0.98;;
74241;SDS011;62599;49.146;10.426;2022-09-09T01:23:14;2.25;;;1.30;;
74241;SDS011;62599;49.146;10.426;2022-09-09T01:28:19;1.60;;;1.02;;
74241;SDS011;62599;49.146;10.426;2022-09-09T01:30:46;3.58;;;1.77;;
74241;SDS011;62599;49.146;10.426;2022-09-09T01:33:15;1.33;;;0.95;;
74241;SDS011;62599;49.146;10.426;2022-09-09T01:38:07;1.80;;;1.13;;
74241;SDS011;62599;49.146;10.426;2022-09-09T01:40:32;1.65;;;1.02;;
74241;SDS011;62599;49.146;10.426;2022-09-09T01:42:57;8.40;;;2.55;;
74241;SDS011;62599;49.146;10.426;2022-09-09T01:45:23;3.00;;;1.10;;
74241;SDS011;62599;49.146;10.426;2022-09-09T01:47:48;2.70;;;1.30;;
74241;SDS011;62599;49.146;10.426;2022-09-09T01:50:15;2.08;;;1.23;;
74241;SDS011;62599;49.146;10.426;2022-09-09T01:52:41;4.82;;;1.33;;
74241;SDS011;62599;49.146;10.426;2022-09-09T01:55:07;2.80;;;1.13;;
74241;SDS011;62599;49.146;10.426;2022-09-09T01:57:44;1.42;;;1.00;;
74241;SDS011;62599;49.146;10.426;2022-09-09T02:00:15;3.10;;;1.30;;
74241;SDS011;62599;49.146;10.426;2022-09-09T02:07:59;6.50;;;1.23;;
74241;SDS011;62599;49.146;10.426;2022-09-09T02:10:30;1.63;;;1.30;;
74241;SDS011;62599;49.146;10.426;2022-09-09T02:13:01;4.40;;;1.17;;
74241;SDS011;62599;49.146;10.426;2022-09-09T02:15:37;2.85;;;1.08;;
74241;SDS011;62599;49.146;10.426;2022-09-09T02:18:07;2.70;;;1.25;;
74241;SDS011;62599;49.146;10.426;2022-09-09T02:20:34;3.58;;;1.10;;
74241;SDS011;62599;49.146;10.426;2022-09-09T02:23:01;1.92;;;1.55;;
74241;SDS011;62599;49.146;10.426;2022-09-09T02:25:28;1.73;;;0.90;;
74241;SDS011;62599;49.146;10.426;2022-09-09T02:27:54;1.40;;;1.13;;
74241;SDS011;62599;49.146;10.426;2022-09-09T02:30:20;2.17;;;1.00;;
74241;SDS011;62599;49.146;10.426;2022-09-09T02:32:45;3.03;;;1.40;;
74241;SDS011;62599;49.146;10.426;2022-09-09T02:35:12;2.60;;;1.10;;
74241;SDS011;62599;49.146;10.426;2022-09-09T02:37:39;2.08;;;1.00;;
74241;SDS011;62599;49.146;10.426;2022-09-09T02:40:06;2.30;;;1.25;;
74241;SDS011;62599;49.146;10.426;2022-09-09T02:42:34;2.55;;;1.25;;
74241;SDS011;62599;49.146;10.426;2022-09-09T02:45:03;1.73;;;1.20;;
74241;SDS011;62599;49.146;10.426;2022-09-09T02:47:34;3.38;;;0.90;;
74241;SDS011;62599;49.146;10.426;2022-09-09T02:50:03;3.03;;;0.80;;
74241;SDS011;62599;49.146;10.426;2022-09-09T02:54:59;2.35;;;0.80;;
74241;SDS011;62599;49.146;10.426;2022-09-09T02:57:28;2.20;;;1.27;;
74241;SDS011;62599;49.146;10.426;2022-09-09T02:59:56;2.45;;;0.80;;
74241;SDS011;62599;49.146;10.426;2022-09-09T03:02:22;1.48;;;0.88;;
74241;SDS011;62599;49.146;10.426;2022-09-09T03:04:47;1.27;;;0.77;;
74241;SDS011;62599;49.146;10.426;2022-09-09T03:07:16;3.28;;;0.80;;
74241;SDS011;62599;49.146;10.426;2022-09-09T03:09:42;1.13;;;0.70;;
74241;SDS011;62599;49.146;10.426;2022-09-09T03:12:08;3.50;;;0.82;;
74241;SDS011;62599;49.146;10.426;2022-09-09T03:14:33;1.87;;;0.60;;
74241;SDS011;62599;49.146;10.426;2022-09-09T03:16:58;5.20;;;0.97;;
74241;SDS011;62599;49.146;10.426;2022-09-09T03:19:25;2.72;;;0.60;;
74241;SDS011;62599;49.146;10.426;2022-09-09T03:21:51;1.47;;;1.00;;
74241;SDS011;62599;49.146;10.426;2022-09-09T03:24:16;2.15;;;1.00;;
74241;SDS011;62599;49.146;10.426;2022-09-09T03:26:42;3.00;;;0.60;;
74241;SDS011;62599;49.146;10.426;2022-09-09T03:29:09;1.13;;;0.85;;
74241;SDS011;62599;49.146;10.426;2022-09-09T03:31:35;2.03;;;0.90;;
74241;SDS011;62599;49.146;10.426;2022-09-09T03:34:01;2.38;;;0.80;;
74241;SDS011;62599;49.146;10.426;2022-09-09T03:36:26;3.85;;;1.17;;
74241;SDS011;62599;49.146;10.426;2022-09-09T03:38:52;2.37;;;0.87;;
74241;SDS011;62599;49.146;10.426;2022-09-09T03:41:17;3.15;;;0.80;;
74241;SDS011;62599;49.146;10.426;2022-09-09T03:43:43;2.35;;;0.90;;
74241;SDS011;62599;49.146;10.426;2022-09-09T03:46:08;2.20;;;1.00;;
74241;SDS011;62599;49.146;10.426;2022-09-09T03:48:34;2.47;;;0.93;;
74241;SDS011;62599;49.146;10.426;2022-09-09T03:50:59;1.87;;;1.20;;
74241;SDS011;62599;49.146;10.426;2022-09-09T03:53:26;3.50;;;1.00;;
74241;SDS011;62599;49.146;10.426;2022-09-09T03:55:53;4.18;;;1.00;;
74241;SDS011;62599;49.146;10.426;2022-09-09T03:58:19;1.40;;;0.80;;
74241;SDS011;62599;49.146;10.426;2022-09-09T04:00:55;1.50;;;0.90;;
74241;SDS011;62599;49.146;10.426;2022-09-09T04:03:20;1.38;;;0.90;;
74241;SDS011;62599;49.146;10.426;2022-09-09T04:05:48;4.50;;;1.02;;
74241;SDS011;62599;49.146;10.426;2022-09-09T04:08:13;3.13;;;1.08;;
74241;SDS011;62599;49.146;10.426;2022-09-09T04:10:39;2.00;;;0.80;;
74241;SDS011;62599;49.146;10.426;2022-09-09T04:13:04;2.65;;;1.33;;
74241;SDS011;62599;49.146;10.426;2022-09-09T04:15:30;2.03;;;1.10;;
74241;SDS011;62599;49.146;10.426;2022-09-09T04:17:55;3.60;;;1.20;;
74241;SDS011;62599;49.146;10.426;2022-09-09T04:20:21;3.90;;;1.40;;
74241;SDS011;62599;49.146;10.426;2022-09-09T04:22:50;5.20;;;1.23;;
74241;SDS011;62599;49.146;10.426;2022-09-09T04:25:15;3.75;;;1.58;;
74241;SDS011;62599;49.146;10.426;2022-09-09T04:27:40;1.73;;;1.23;;
74241;SDS011;62599;49.146;10.426;2022-09-09T04:30:06;2.38;;;1.27;;
74241;SDS011;62599;49.146;10.426;2022-09-09T04:32:35;1.85;;;1.00;;
74241;SDS011;62599;49.146;10.426;2022-09-09T04:35:01;3.40;;;1.08;;
74241;SDS011;62599;49.146;10.426;2022-09-09T04:37:27;4.53;;;1.27;;
74241;SDS011;62599;49.146;10.426;2022-09-09T04:39:52;7.30;;;1.20;;
74241;SDS011;62599;49.146;10.426;2022-09-09T04:42:17;2.87;;;1.30;;
74241;SDS011;62599;49.146;10.426;2022-09-09T04:44:44;3.05;;;0.93;;
74241;SDS011;62599;49.146;10.426;2022-09-09T04:47:09;2.93;;;1.30;;
74241;SDS011;62599;49.146;10.426;2022-09-09T04:49:34;3.35;;;1.30;;
74241;SDS011;62599;49.146;10.426;2022-09-09T04:52:00;2.67;;;1.30;;
74241;SDS011;62599;49.146;10.426;2022-09-09T04:54:26;6.68;;;1.17;;
74241;SDS011;62599;49.146;10.426;2022-09-09T04:56:51;3.80;;;1.07;;
74241;SDS011;62599;49.146;10.426;2022-09-09T04:59:16;2.53;;;1.40;;
74241;SDS011;62599;49.146;10.426;2022-09-09T05:01:41;4.20;;;2.20;;
74241;SDS011;62599;49.146;10.426;2022-09-09T05:04:07;3.50;;;1.38;;
74241;SDS011;62599;49.146;10.426;2022-09-09T05:06:33;4.85;;;1.52;;
74241;SDS011;62599;49.146;10.426;2022-09-09T05:08:58;2.55;;;1.20;;
74241;SDS011;62599;49.146;10.426;2022-09-09T05:11:25;5.43;;;1.40;;
74241;SDS011;62599;49.146;10.426;2022-09-09T05:13:51;3.08;;;1.30;;
74241;SDS011;62599;49.146;10.426;2022-09-09T05:16:17;2.92;;;1.50;;
74241;SDS011;62599;49.146;10.426;2022-09-09T05:18:43;3.42;;;1.17;;
74241;SDS011;62599;49.146;10.426;2022-09-09T05:21:09;5.80;;;1.45;;
74241;SDS011;62599;49.146;10.426;2022-09-09T05:23:34;2.15;;;1.70;;
74241;SDS011;62599;49.146;10.426;2022-09-09T05:26:00;2.47;;;1.27;;
74241;SDS011;62599;49.146;10.426;2022-09-09T05:28:26;4.40;;;1.48;;
74241;SDS011;62599;49.146;10.426;2022-09-09T05:30:57;2.38;;;1.50;;
74241;SDS011;62599;49.146;10.426;2022-09-09T05:33:23;3.13;;;1.23;;
74241;SDS011;62599;49.146;10.426;2022-09-09T05:35:54;2.35;;;1.10;;
74241;SDS011;62599;49.146;10.426;2022-09-09T05:38:19;6.20;;;1.48;;
74241;SDS011;62599;49.146;10.426;2022-09-09T05:40:48;2.20;;;1.20;;
74241;SDS011;62599;49.146;10.426;2022-09-09T05:43:14;1.80;;;1.15;;
74241;SDS011;62599;49.146;10.426;2022-09-09T05:45:40;3.88;;;1.15;;
74241;SDS011;62599;49.146;10.426;2022-09-09T05:48:05;4.53;;;1.30;;
74241;SDS011;62599;49.146;10.426;2022-09-09T05:50:30;1.77;;;1.00;;
74241;SDS011;62599;49.146;10.426;2022-09-09T05:52:56;2.17;;;0.88;;
74241;SDS011;62599;49.146;10.426;2022-09-09T05:55:21;3.30;;;1.10;;
74241;SDS011;62599;49.146;10.426;2022-09-09T05:57:50;6.00;;;1.10;;
74241;SDS011;62599;49.146;10.426;2022-09-09T06:00:17;2.20;;;0.93;;
74241;SDS011;62599;49.146;10.426;2022-09-09T06:02:42;3.05;;;1.00;;
74241;SDS011;62599;49.146;10.426;2022-09-09T06:05:07;2.05;;;1.05;;
74241;SDS011;62599;49.146;10.426;2022-09-09T06:07:33;5.05;;;1.17;;
74241;SDS011;62599;49.146;10.426;2022-09-09T06:09:58;2.43;;;0.80;;
74241;SDS011;62599;49.146;10.426;2022-09-09T06:12:25;1.33;;;0.80;;
74241;SDS011;62599;49.146;10.426;2022-09-09T06:14:50;5.15;;;0.77;;
74241;SDS011;62599;49.146;10.426;2022-09-09T06:17:16;1.00;;;0.70;;
74241;SDS011;62599;49.146;10.426;2022-09-09T06:19:42;2.43;;;1.13;;
74241;SDS011;62599;49.146;10.426;2022-09-09T06:22:07;2.73;;;0.80;;
74241;SDS011;62599;49.146;10.426;2022-09-09T06:24:32;4.83;;;0.73;;
74241;SDS011;62599;49.146;10.426;2022-09-09T06:26:58;2.25;;;0.85;;
74241;SDS011;62599;49.146;10.426;2022-09-09T06:29:23;1.80;;;0.80;;
74241;SDS011;62599;49.146;10.426;2022-09-09T06:31:48;2.97;;;0.80;;
74241;SDS011;62599;49.146;10.426;2022-09-09T06:34:14;8.43;;;1.67;;
74241;SDS011;62599;49.146;10.426;2022-09-09T06:36:39;2.13;;;0.98;;
74241;SDS011;62599;49.146;10.426;2022-09-09T06:39:05;2.28;;;1.17;;
74241;SDS011;62599;49.146;10.426;2022-09-09T06:41:31;3.03;;;1.23;;
74241;SDS011;62599;49.146;10.426;2022-09-09T06:43:57;1.50;;;1.02;;
74241;SDS011;62599;49.146;10.426;2022-09-09T06:46:24;2.17;;;1.07;;
74241;SDS011;62599;49.146;10.426;2022-09-09T06:48:52;3.92;;;0.90;;
74241;SDS011;62599;49.146;10.426;2022-09-09T06:51:20;2.65;;;0.90;;
74241;SDS011;62599;49.146;10.426;2022-09-09T06:53:46;1.10;;;0.70;;
74241;SDS011;62599;49.146;10.426;2022-09-09T06:56:23;3.38;;;1.02;;
74241;SDS011;62599;49.146;10.426;2022-09-09T06:58:49;1.38;;;0.70;;
74241;SDS011;62599;49.146;10.426;2022-09-09T07:01:15;4.47;;;1.02;;
74241;SDS011;62599;49.146;10.426;2022-09-09T07:03:44;3.03;;;0.80;;
74241;SDS011;62599;49.146;10.426;2022-09-09T07:06:20;2.30;;;0.70;;
74241;SDS011;62599;49.146;10.426;2022-09-09T07:08:52;2.63;;;0.85;;
74241;SDS011;62599;49.146;10.426;2022-09-09T07:11:19;2.15;;;0.82;;
74241;SDS011;62599;49.146;10.426;2022-09-09T07:13:44;1.50;;;0.63;;
74241;SDS011;62599;49.146;10.426;2022-09-09T07:16:10;3.10;;;0.60;;
74241;SDS011;62599;49.146;10.426;2022-09-09T07:18:36;2.97;;;1.13;;
74241;SDS011;62599;49.146;10.426;2022-09-09T07:21:02;1.77;;;0.60;;
74241;SDS011;62599;49.146;10.426;2022-09-09T07:23:28;2.60;;;0.70;;
74241;SDS011;62599;49.146;10.426;2022-09-09T07:25:53;3.08;;;0.60;;
74241;SDS011;62599;49.146;10.426;2022-09-09T07:28:19;4.87;;;0.50;;
74241;SDS011;62599;49.146;10.426;2022-09-09T07:30:52;2.90;;;0.50;;
74241;SDS011;62599;49.146;10.426;2022-09-09T07:33:17;0.95;;;0.43;;
74241;SDS011;62599;49.146;10.426;2022-09-09T07:35:44;2.40;;;0.60;;
74241;SDS011;62599;49.146;10.426;2022-09-09T07:38:10;3.37;;;0.47;;
74241;SDS011;62599;49.146;10.426;2022-09-09T07:40:36;1.33;;;0.30;;
74241;SDS011;62599;49.146;10.426;2022-09-09T07:43:01;1.47;;;0.20;;
74241;SDS011;62599;49.146;10.426;2022-09-09T07:45:26;2.67;;;0.93;;
74241;SDS011;62599;49.146;10.426;2022-09-09T07:47:53;2.22;;;0.55;;
74241;SDS011;62599;49.146;10.426;2022-09-09T07:50:18;1.50;;;0.60;;
74241;SDS011;62599;49.146;10.426;2022-09-09T07:52:44;1.50;;;0.27;;
74241;SDS011;62599;49.146;10.426;2022-09-09T07:55:09;1.60;;;0.40;;
74241;SDS011;62599;49.146;10.426;2022-09-09T07:57:34;4.57;;;0.90;;
74241;SDS011;62599;49.146;10.426;2022-09-09T07:59:59;2.10;;;0.37;;
74241;SDS011;62599;49.146;10.426;2022-09-09T08:02:24;1.67;;;0.80;;
74241;SDS011;62599;49.146;10.426;2022-09-09T08:04:54;1.55;;;0.50;;
74241;SDS011;62599;49.146;10.426;2022-09-09T08:07:19;0.77;;;0.27;;
74241;SDS011;62599;49.146;10.426;2022-09-09T08:09:46;2.58;;;0.40;;
74241;SDS011;62599;49.146;10.426;2022-09-09T08:12:11;1.27;;;0.30;;
74241;SDS011;62599;49.146;10.426;2022-09-09T08:14:37;2.28;;;0.22;;
74241;SDS011;62599;49.146;10.426;2022-09-09T08:17:03;2.30;;;0.33;;
74241;SDS011;62599;49.146;10.426;2022-09-09T08:19:28;0.73;;;0.20;;
74241;SDS011;62599;49.146;10.426;2022-09-09T08:24:24;2.83;;;0.20;;
74241;SDS011;62599;49.146;10.426;2022-09-09T08:26:49;0.30;;;0.20;;
74241;SDS011;62599;49.146;10.426;2022-09-09T08:29:15;2.47;;;0.40;;
74241;SDS011;62599;49.146;10.426;2022-09-09T08:31:47;3.95;;;0.40;;
74241;SDS011;62599;49.146;10.426;2022-09-09T08:34:13;2.30;;;0.40;;
74241;SDS011;62599;49.146;10.426;2022-09-09T08:36:39;0.75;;;0.30;;
74241;SDS011;62599;49.146;10.426;2022-09-09T08:39:06;2.08;;;0.43;;
74241;SDS011;62599;49.146;10.426;2022-09-09T08:46:37;0.90;;;0.25;;
74241;SDS011;62599;49.146;10.426;2022-09-09T08:51:44;1.63;;;0.22;;
74241;SDS011;62599;49.146;10.426;2022-09-09T08:54:09;3.17;;;0.33;;
74241;SDS011;62599;49.146;10.426;2022-09-09T08:56:35;0.90;;;0.27;;
74241;SDS011;62599;49.146;10.426;2022-09-09T08:59:01;1.15;;;0.55;;
74241;SDS011;62599;49.146;10.426;2022-09-09T09:09:44;1.10;;;0.43;;
74241;SDS011;62599;49.146;10.426;2022-09-09T09:12:15;1.38;;;0.65;;
74241;SDS011;62599;49.146;10.426;2022-09-09T09:14:40;0.80;;;0.80;;
74241;SDS011;62599;49.146;10.426;2022-09-09T09:17:10;1.88;;;0.32;;
74241;SDS011;62599;49.146;10.426;2022-09-09T09:19:38;0.85;;;0.50;;
74241;SDS011;62599;49.146;10.426;2022-09-09T09:27:34;2.45;;;0.50;;
74241;SDS011;62599;49.146;10.426;2022-09-09T09:30:01;2.53;;;0.50;;
74241;SDS011;62599;49.146;10.426;2022-09-09T09:32:28;1.98;;;0.40;;
74241;SDS011;62599;49.146;10.426;2022-09-09T09:34:56;4.57;;;0.68;;
74241;SDS011;62599;49.146;10.426;2022-09-09T09:37:30;1.25;;;0.35;;
74241;SDS011;62599;49.146;10.426;2022-09-09T09:39:56;2.25;;;0.40;;
74241;SDS011;62599;49.146;10.426;2022-09-09T09:42:32;1.05;;;0.95;;
74241;SDS011;62599;49.146;10.426;2022-09-09T09:45:06;2.10;;;0.50;;
74241;SDS011;62599;49.146;10.426;2022-09-09T09:47:32;1.15;;;0.57;;
74241;SDS011;62599;49.146;10.426;2022-09-09T09:49:58;1.73;;;0.20;;
74241;SDS011;62599;49.146;10.426;2022-09-09T09:52:28;1.00;;;0.40;;
74241;SDS011;62599;49.146;10.426;2022-09-09T09:54:53;1.02;;;0.47;;
74241;SDS011;62599;49.146;10.426;2022-09-09T09:57:22;1.90;;;0.77;;
74241;SDS011;62599;49.146;10.426;2022-09-09T09:59:59;0.88;;;0.57;;
74241;SDS011;62599;49.146;10.426;2022-09-09T10:02:25;2.20;;;0.52;;
74241;SDS011;62599;49.146;10.426;2022-09-09T10:05:05;1.42;;;0.40;;
74241;SDS011;62599;49.146;10.426;2022-09-09T10:07:30;2.63;;;1.15;;
74241;SDS011;62599;49.146;10.426;2022-09-09T10:09:57;1.48;;;0.60;;
74241;SDS011;62599;49.146;10.426;2022-09-09T10:22:36;3.15;;;0.47;;
74241;SDS011;62599;49.146;10.426;2022-09-09T10:27:57;1.55;;;0.45;;
74241;SDS011;62599;49.146;10.426;2022-09-09T10:33:44;1.70;;;0.50;;
74241;SDS011;62599;49.146;10.426;2022-09-09T10:48:18;2.27;;;0.40;;
74241;SDS011;62599;49.146;10.426;2022-09-09T10:53:42;1.30;;;0.43;;
74241;SDS011;62599;49.146;10.426;2022-09-09T10:56:11;1.80;;;0.68;;
74241;SDS011;62599;49.146;10.426;2022-09-09T10:58:56;1.58;;;0.50;;
74241;SDS011;62599;49.146;10.426;2022-09-09T11:01:45;1.38;;;0.50;;
74241;SDS011;62599;49.146;10.426;2022-09-09T11:04:10;1.50;;;0.50;;
74241;SDS011;62599;49.146;10.426;2022-09-09T11:06:42;1.35;;;0.60;;
74241;SDS011;62599;49.146;10.426;2022-09-09T11:09:13;1.88;;;0.40;;
74241;SDS011;62599;49.146;10.426;2022-09-09T11:11:46;3.08;;;1.63;;
74241;SDS011;62599;49.146;10.426;2022-09-09T11:14:18;1.90;;;0.50;;
74241;SDS011;62599;49.146;10.426;2022-09-09T11:19:22;2.15;;;0.63;;
74241;SDS011;62599;49.146;10.426;2022-09-09T11:21:49;1.52;;;1.42;;
74241;SDS011;62599;49.146;10.426;2022-09-09T11:26:46;2.30;;;1.40;;
74241;SDS011;62599;49.146;10.426;2022-09-09T11:37:11;2.08;;;1.15;;
74241;SDS011;62599;49.146;10.426;2022-09-09T11:44:39;1.48;;;1.00;;
74241;SDS011;62599;49.146;10.426;2022-09-09T11:47:16;1.63;;;1.25;;
74241;SDS011;62599;49.146;10.426;2022-09-09T11:49:44;1.33;;;1.13;;
74241;SDS011;62599;49.146;10.426;2022-09-09T11:52:20;1.42;;;1.08;;
74241;SDS011;62599;49.146;10.426;2022-09-09T11:54:47;2.20;;;0.95;;
74241;SDS011;62599;49.146;10.426;2022-09-09T11:57:24;1.40;;;1.25;;
74241;SDS011;62599;49.146;10.426;2022-09-09T12:02:23;1.02;;;0.95;;
74241;SDS011;62599;49.146;10.426;2022-09-09T12:04:54;1.77;;;0.93;;
74241;SDS011;62599;49.146;10.426;2022-09-09T12:07:30;3.88;;;1.45;;
74241;SDS011;62599;49.146;10.426;2022-09-09T12:12:27;2.30;;;1.30;;
74241;SDS011;62599;49.146;10.426;2022-09-09T12:14:57;0.95;;;0.45;;
74241;SDS011;62599;49.146;10.426;2022-09-09T12:17:23;1.25;;;0.38;;
74241;SDS011;62599;49.146;10.426;2022-09-09T12:22:43;1.65;;;0.60;;
74241;SDS011;62599;49.146;10.426;2022-09-09T12:27:43;1.70;;;0.63;;
74241;SDS011;62599;49.146;10.426;2022-09-09T12:30:10;0.88;;;0.40;;
74241;SDS011;62599;49.146;10.426;2022-09-09T12:32:36;1.52;;;0.30;;
74241;SDS011;62599;49.146;10.426;2022-09-09T12:35:03;1.67;;;1.30;;
74241;SDS011;62599;49.146;10.426;2022-09-09T12:39:59;3.57;;;1.30;;
74241;SDS011;62599;49.146;10.426;2022-09-09T12:42:24;2.35;;;0.88;;
74241;SDS011;62599;49.146;10.426;2022-09-09T12:44:50;1.17;;;0.70;;
74241;SDS011;62599;49.146;10.426;2022-09-09T12:47:16;1.50;;;0.50;;
74241;SDS011;62599;49.146;10.426;2022-09-09T12:49:42;1.23;;;0.30;;
74241;SDS011;62599;49.146;10.426;2022-09-09T12:52:54;0.70;;;0.40;;
74241;SDS011;62599;49.146;10.426;2022-09-09T12:54:55;2.30;;;0.40;;
74241;SDS011;62599;49.146;10.426;2022-09-09T12:57:21;1.55;;;0.30;;
74241;SDS011;62599;49.146;10.426;2022-09-09T12:59:50;2.67;;;0.47;;
74241;SDS011;62599;49.146;10.426;2022-09-09T13:02:20;2.75;;;0.40;;
74241;SDS011;62599;49.146;10.426;2022-09-09T13:04:45;1.08;;;1.00;;
74241;SDS011;62599;49.146;10.426;2022-09-09T13:07:12;2.58;;;0.40;;
74241;SDS011;62599;49.146;10.426;2022-09-09T13:09:37;2.92;;;0.50;;
74241;SDS011;62599;49.146;10.426;2022-09-09T13:12:03;2.47;;;0.60;;
74241;SDS011;62599;49.146;10.426;2022-09-09T13:14:31;1.33;;;0.32;;
74241;SDS011;62599;49.146;10.426;2022-09-09T13:17:00;0.38;;;0.38;;
74241;SDS011;62599;49.146;10.426;2022-09-09T13:19:26;1.85;;;0.77;;
74241;SDS011;62599;49.146;10.426;2022-09-09T13:21:53;1.48;;;0.77;;
74241;SDS011;62599;49.146;10.426;2022-09-09T13:24:37;1.20;;;0.43;;
74241;SDS011;62599;49.146;10.426;2022-09-09T13:27:04;2.13;;;0.57;;
74241;SDS011;62599;49.146;10.426;2022-09-09T13:29:30;0.57;;;0.30;;
74241;SDS011;62599;49.146;10.426;2022-09-09T13:34:39;1.08;;;0.20;;
74241;SDS011;62599;49.146;10.426;2022-09-09T13:37:19;0.90;;;0.30;;
74241;SDS011;62599;49.146;10.426;2022-09-09T13:39:51;1.25;;;0.32;;
74241;SDS011;62599;49.146;10.426;2022-09-09T13:42:28;2.38;;;0.40;;
74241;SDS011;62599;49.146;10.426;2022-09-09T13:44:54;1.38;;;0.50;;
74241;SDS011;62599;49.146;10.426;2022-09-09T13:47:41;1.23;;;0.20;;
74241;SDS011;62599;49.146;10.426;2022-09-09T13:50:26;0.52;;;0.22;;
74241;SDS011;62599;49.146;10.426;2022-09-09T13:52:52;2.92;;;0.28;;
74241;SDS011;62599;49.146;10.426;2022-09-09T13:55:18;1.00;;;0.30;;
74241;SDS011;62599;49.146;10.426;2022-09-09T13:57:50;1.95;;;0.30;;
74241;SDS011;62599;49.146;10.426;2022-09-09T14:00:15;2.47;;;0.40;;
74241;SDS011;62599;49.146;10.426;2022-09-09T14:02:40;0.57;;;0.30;;
74241;SDS011;62599;49.146;10.426;2022-09-09T14:05:05;4.70;;;0.10;;
74241;SDS011;62599;49.146;10.426;2022-09-09T14:07:31;1.92;;;0.20;;
74241;SDS011;62599;49.146;10.426;2022-09-09T14:09:57;1.25;;;0.30;;
74241;SDS011;62599;49.146;10.426;2022-09-09T14:12:23;0.63;;;0.20;;
74241;SDS011;62599;49.146;10.426;2022-09-09T14:14:48;0.90;;;0.20;;
74241;SDS011;62599;49.146;10.426;2022-09-09T14:17:14;1.45;;;0.32;;
74241;SDS011;62599;49.146;10.426;2022-09-09T14:19:39;1.13;;;0.30;;
74241;SDS011;62599;49.146;10.426;2022-09-09T14:22:05;0.37;;;0.20;;
74241;SDS011;62599;49.146;10.426;2022-09-09T14:24:30;0.90;;;0.20;;
74241;SDS011;62599;49.146;10.426;2022-09-09T14:26:55;1.33;;;0.13;;
74241;SDS011;62599;49.146;10.426;2022-09-09T14:29:21;0.30;;;0.30;;
74241;SDS011;62599;49.146;10.426;2022-09-09T14:31:46;3.93;;;0.40;;
74241;SDS011;62599;49.146;10.426;2022-09-09T14:34:11;0.20;;;0.10;;
74241;SDS011;62599;49.146;10.426;2022-09-09T14:36:37;1.17;;;0.10;;
74241;SDS011;62599;49.146;10.426;2022-09-09T14:39:02;0.25;;;0.25;;
74241;SDS011;62599;49.146;10.426;2022-09-09T14:41:28;1.50;;;0.30;;
74241;SDS011;62599;49.146;10.426;2022-09-09T14:43:54;0.80;;;0.32;;
74241;SDS011;62599;49.146;10.426;2022-09-09T14:46:19;0.73;;;0.20;;
74241;SDS011;62599;49.146;10.426;2022-09-09T14:48:45;1.63;;;0.50;;
74241;SDS011;62599;49.146;10.426;2022-09-09T14:51:20;0.28;;;0.20;;
74241;SDS011;62599;49.146;10.426;2022-09-09T14:53:47;0.77;;;0.40;;
74241;SDS011;62599;49.146;10.426;2022-09-09T14:56:13;1.23;;;0.10;;
74241;SDS011;62599;49.146;10.426;2022-09-09T14:58:39;2.10;;;0.30;;
74241;SDS011;62599;49.146;10.426;2022-09-09T15:01:06;0.82;;;0.32;;
74241;SDS011;62599;49.146;10.426;2022-09-09T15:03:31;0.30;;;0.30;;
74241;SDS011;62599;49.146;10.426;2022-09-09T15:05:57;0.53;;;0.30;;
74241;SDS011;62599;49.146;10.426;2022-09-09T15:08:23;0.70;;;0.28;;
74241;SDS011;62599;49.146;10.426;2022-09-09T15:10:48;0.88;;;0.43;;
74241;SDS011;62599;49.146;10.426;2022-09-09T15:13:15;0.85;;;0.38;;
74241;SDS011;62599;49.146;10.426;2022-09-09T15:15:41;0.20;;;0.20;;
74241;SDS011;62599;49.146;10.426;2022-09-09T15:18:07;1.15;;;0.25;;
74241;SDS011;62599;49.146;10.426;2022-09-09T15:20:32;0.93;;;0.23;;
74241;SDS011;62599;49.146;10.426;2022-09-09T15:22:57;0.37;;;0.20;;
74241;SDS011;62599;49.146;10.426;2022-09-09T15:25:22;1.73;;;0.30;;
74241;SDS011;62599;49.146;10.426;2022-09-09T15:27:48;1.00;;;0.20;;
74241;SDS011;62599;49.146;10.426;2022-09-09T15:30:13;1.00;;;0.20;;
74241;SDS011;62599;49.146;10.426;2022-09-09T15:32:38;1.00;;;0.20;;
74241;SDS011;62599;49.146;10.426;2022-09-09T15:35:04;1.02;;;0.35;;
74241;SDS011;62599;49.146;10.426;2022-09-09T15:37:30;1.55;;;0.22;;
74241;SDS011;62599;49.146;10.426;2022-09-09T15:39:55;1.88;;;0.30;;
74241;SDS011;62599;49.146;10.426;2022-09-09T15:42:23;0.65;;;0.40;;
74241;SDS011;62599;49.146;10.426;2022-09-09T15:44:50;2.15;;;1.17;;
74241;SDS011;62599;49.146;10.426;2022-09-09T15:47:15;0.60;;;0.60;;
74241;SDS011;62599;49.146;10.426;2022-09-09T15:49:41;1.20;;;0.80;;
74241;SDS011;62599;49.146;10.426;2022-09-09T15:52:06;1.50;;;1.17;;
74241;SDS011;62599;49.146;10.426;2022-09-09T15:54:32;1.03;;;0.93;;
74241;SDS011;62599;49.146;10.426;2022-09-09T15:56:59;2.70;;;1.40;;
74241;SDS011;62599;49.146;10.426;2022-09-09T15:59:25;3.00;;;1.65;;
74241;SDS011;62599;49.146;10.426;2022-09-09T16:01:51;1.30;;;1.30;;
74241;SDS011;62599;49.146;10.426;2022-09-09T16:04:17;2.40;;;0.98;;
74241;SDS011;62599;49.146;10.426;2022-09-09T16:06:48;3.03;;;1.00;;
74241;SDS011;62599;49.146;10.426;2022-09-09T16:09:13;0.80;;;0.50;;
74241;SDS011;62599;49.146;10.426;2022-09-09T16:11:39;0.73;;;0.70;;
74241;SDS011;62599;49.146;10.426;2022-09-09T16:14:04;1.27;;;1.23;;
74241;SDS011;62599;49.146;10.426;2022-09-09T16:16:31;1.20;;;1.20;;
74241;SDS011;62599;49.146;10.426;2022-09-09T16:18:57;1.65;;;1.45;;
74241;SDS011;62599;49.146;10.426;2022-09-09T16:21:24;1.35;;;1.25;;
74241;SDS011;62599;49.146;10.426;2022-09-09T16:23:50;1.80;;;0.40;;
74241;SDS011;62599;49.146;10.426;2022-09-09T16:26:15;1.02;;;0.98;;
74241;SDS011;62599;49.146;10.426;2022-09-09T16:28:41;3.63;;;1.13;;
74241;SDS011;62599;49.146;10.426;2022-09-09T16:31:07;0.90;;;0.82;;
74241;SDS011;62599;49.146;10.426;2022-09-09T16:33:32;1.48;;;0.98;;
74241;SDS011;62599;49.146;10.426;2022-09-09T16:35:58;2.13;;;0.40;;
74241;SDS011;62599;49.146;10.426;2022-09-09T16:38:23;0.43;;;0.20;;